sensor_id;sensor_type;location;lat;lon;timestamp;temperature;humidity
71514;DHT22;59335;46.652;21.272;2024-01-30T00:00:21;23.63;28.16
71514;DHT22;59335;46.652;21.272;2024-01-30T00:03:25;23.60;28.14
71514;DHT22;59335;46.652;21.272;2024-01-30T00:06:28;23.61;28.08
71514;DHT22;59335;46.652;21.272;2024-01-30T00:09:30;23.61;28.05
71514;DHT22;59335;46.652;21.272;2024-01-30T00:12:33;23.60;28.05
71514;DHT22;59335;46.652;21.272;2024-01-30T00:15:36;23.59;28.04
71514;DHT22;59335;46.652;21.272;2024-01-30T00:18:39;23.59;28.09
71514;DHT22;59335;46.652;21.272;2024-01-30T00:21:42;23.59;28.03
71514;DHT22;59335;46.652;21.272;2024-01-30T00:24:45;23.59;27.96
71514;DHT22;59335;46.652;21.272;2024-01-30T00:27:48;23.57;27.96
71514;DHT22;59335;46.652;21.272;2024-01-30T00:30:51;23.59;27.99
71514;DHT22;59335;46.652;21.272;2024-01-30T00:33:54;23.56;27.96
71514;DHT22;59335;46.652;21.272;2024-01-30T00:36:57;23.57;27.90
71514;DHT22;59335;46.652;21.272;2024-01-30T00:39:59;23.59;27.84
71514;DHT22;59335;46.652;21.272;2024-01-30T00:43:02;23.59;27.87
71514;DHT22;59335;46.652;21.272;2024-01-30T00:46:05;23.56;27.85
71514;DHT22;59335;46.652;21.272;2024-01-30T00:49:08;23.59;27.84
71514;DHT22;59335;46.652;21.272;2024-01-30T00:52:11;23.57;27.81
71514;DHT22;59335;46.652;21.272;2024-01-30T00:55:15;23.56;27.81
71514;DHT22;59335;46.652;21.272;2024-01-30T00:58:18;23.57;27.79
71514;DHT22;59335;46.652;21.272;2024-01-30T01:01:22;23.57;27.76
71514;DHT22;59335;46.652;21.272;2024-01-30T01:04:25;23.57;27.73
71514;DHT22;59335;46.652;21.272;2024-01-30T01:07:30;23.59;27.69
71514;DHT22;59335;46.652;21.272;2024-01-30T01:10:33;23.56;27.67
71514;DHT22;59335;46.652;21.272;2024-01-30T01:13:36;23.57;27.67
71514;DHT22;59335;46.652;21.272;2024-01-30T01:16:39;23.56;27.66
71514;DHT22;59335;46.652;21.272;2024-01-30T01:19:41;23.56;27.64
71514;DHT22;59335;46.652;21.272;2024-01-30T01:22:44;23.57;27.65
71514;DHT22;59335;46.652;21.272;2024-01-30T01:25:47;23.57;27.59
71514;DHT22;59335;46.652;21.272;2024-01-30T01:28:50;23.57;27.63
71514;DHT22;59335;46.652;21.272;2024-01-30T01:31:53;23.56;27.56
71514;DHT22;59335;46.652;21.272;2024-01-30T01:34:56;23.56;27.56
71514;DHT22;59335;46.652;21.272;2024-01-30T01:37:59;23.57;27.57
71514;DHT22;59335;46.652;21.272;2024-01-30T01:41:03;23.53;27.51
71514;DHT22;59335;46.652;21.272;2024-01-30T01:44:06;23.56;27.47
71514;DHT22;59335;46.652;21.272;2024-01-30T01:47:09;23.56;27.47
71514;DHT22;59335;46.652;21.272;2024-01-30T01:50:13;23.56;27.47
71514;DHT22;59335;46.652;21.272;2024-01-30T01:53:16;23.56;27.41
71514;DHT22;59335;46.652;21.272;2024-01-30T01:56:19;23.51;27.44
71514;DHT22;59335;46.652;21.272;2024-01-30T01:59:23;23.53;27.41
71514;DHT22;59335;46.652;21.272;2024-01-30T02:02:30;23.54;27.42
71514;DHT22;59335;46.652;21.272;2024-01-30T02:05:34;23.53;27.42
71514;DHT22;59335;46.652;21.272;2024-01-30T02:08:37;23.54;27.38
71514;DHT22;59335;46.652;21.272;2024-01-30T02:11:40;23.54;27.38
71514;DHT22;59335;46.652;21.272;2024-01-30T02:14:45;23.56;27.33
71514;DHT22;59335;46.652;21.272;2024-01-30T02:17:48;23.53;27.38
71514;DHT22;59335;46.652;21.272;2024-01-30T02:20:53;23.54;27.30
71514;DHT22;59335;46.652;21.272;2024-01-30T02:23:56;23.56;27.38
71514;DHT22;59335;46.652;21.272;2024-01-30T02:27:01;23.56;27.33
71514;DHT22;59335;46.652;21.272;2024-01-30T02:30:05;23.54;27.33
71514;DHT22;59335;46.652;21.272;2024-01-30T02:33:08;23.56;27.30
71514;DHT22;59335;46.652;21.272;2024-01-30T02:36:11;23.54;27.31
71514;DHT22;59335;46.652;21.272;2024-01-30T02:39:15;23.57;27.23
71514;DHT22;59335;46.652;21.272;2024-01-30T02:42:18;23.57;27.25
71514;DHT22;59335;46.652;21.272;2024-01-30T02:45:21;23.56;27.17
71514;DHT22;59335;46.652;21.272;2024-01-30T02:48:24;23.54;27.14
71514;DHT22;59335;46.652;21.272;2024-01-30T02:51:27;23.56;27.12
71514;DHT22;59335;46.652;21.272;2024-01-30T02:54:29;23.56;27.06
71514;DHT22;59335;46.652;21.272;2024-01-30T02:57:33;23.59;27.09
71514;DHT22;59335;46.652;21.272;2024-01-30T03:00:36;23.56;27.12
71514;DHT22;59335;46.652;21.272;2024-01-30T03:03:39;23.57;27.09
71514;DHT22;59335;46.652;21.272;2024-01-30T03:06:46;23.53;27.06
71514;DHT22;59335;46.652;21.272;2024-01-30T03:09:52;23.54;27.12
71514;DHT22;59335;46.652;21.272;2024-01-30T03:12:55;23.57;27.03
71514;DHT22;59335;46.652;21.272;2024-01-30T03:15:58;23.54;27.02
71514;DHT22;59335;46.652;21.272;2024-01-30T03:19:01;23.57;26.99
71514;DHT22;59335;46.652;21.272;2024-01-30T03:22:05;23.59;27.00
71514;DHT22;59335;46.652;21.272;2024-01-30T03:25:08;23.54;27.03
71514;DHT22;59335;46.652;21.272;2024-01-30T03:28:11;23.54;26.97
71514;DHT22;59335;46.652;21.272;2024-01-30T03:31:15;23.53;26.94
71514;DHT22;59335;46.652;21.272;2024-01-30T03:34:18;23.56;26.88
71514;DHT22;59335;46.652;21.272;2024-01-30T03:37:21;23.57;26.89
71514;DHT22;59335;46.652;21.272;2024-01-30T03:40:24;23.56;26.88
71514;DHT22;59335;46.652;21.272;2024-01-30T03:43:27;23.54;26.82
71514;DHT22;59335;46.652;21.272;2024-01-30T03:46:30;23.56;26.80
71514;DHT22;59335;46.652;21.272;2024-01-30T03:49:33;23.54;26.82
71514;DHT22;59335;46.652;21.272;2024-01-30T03:52:36;23.54;26.88
71514;DHT22;59335;46.652;21.272;2024-01-30T03:55:38;23.56;26.85
71514;DHT22;59335;46.652;21.272;2024-01-30T03:58:41;23.57;26.80
71514;DHT22;59335;46.652;21.272;2024-01-30T04:01:46;23.56;26.80
71514;DHT22;59335;46.652;21.272;2024-01-30T04:04:49;23.59;26.74
71514;DHT22;59335;46.652;21.272;2024-01-30T04:07:53;23.54;26.76
71514;DHT22;59335;46.652;21.272;2024-01-30T04:10:55;23.57;26.71
71514;DHT22;59335;46.652;21.272;2024-01-30T04:13:58;23.54;26.74
71514;DHT22;59335;46.652;21.272;2024-01-30T04:17:02;23.54;26.73
71514;DHT22;59335;46.652;21.272;2024-01-30T04:20:05;23.54;26.66
71514;DHT22;59335;46.652;21.272;2024-01-30T04:23:08;23.54;26.63
71514;DHT22;59335;46.652;21.272;2024-01-30T04:26:11;23.56;26.65
71514;DHT22;59335;46.652;21.272;2024-01-30T04:29:14;23.54;26.59
71514;DHT22;59335;46.652;21.272;2024-01-30T04:32:16;23.53;26.57
71514;DHT22;59335;46.652;21.272;2024-01-30T04:35:20;23.54;26.50
71514;DHT22;59335;46.652;21.272;2024-01-30T04:38:26;23.56;26.51
71514;DHT22;59335;46.652;21.272;2024-01-30T04:41:29;23.57;26.51
71514;DHT22;59335;46.652;21.272;2024-01-30T04:44:34;23.54;26.54
71514;DHT22;59335;46.652;21.272;2024-01-30T04:47:36;23.54;26.57
71514;DHT22;59335;46.652;21.272;2024-01-30T04:50:39;23.54;26.51
71514;DHT22;59335;46.652;21.272;2024-01-30T04:53:42;23.54;26.56
71514;DHT22;59335;46.652;21.272;2024-01-30T04:56:45;23.56;26.51
71514;DHT22;59335;46.652;21.272;2024-01-30T04:59:48;23.54;26.48
71514;DHT22;59335;46.652;21.272;2024-01-30T05:02:51;23.53;26.48
71514;DHT22;59335;46.652;21.272;2024-01-30T05:05:54;23.54;26.48
71514;DHT22;59335;46.652;21.272;2024-01-30T05:08:57;23.53;26.47
71514;DHT22;59335;46.652;21.272;2024-01-30T05:12:00;23.56;26.48
71514;DHT22;59335;46.652;21.272;2024-01-30T05:15:03;23.56;26.53
71514;DHT22;59335;46.652;21.272;2024-01-30T05:18:07;23.56;26.44
71514;DHT22;59335;46.652;21.272;2024-01-30T05:21:10;23.54;26.53
71514;DHT22;59335;46.652;21.272;2024-01-30T05:24:14;23.57;26.47
71514;DHT22;59335;46.652;21.272;2024-01-30T05:27:16;23.56;26.38
71514;DHT22;59335;46.652;21.272;2024-01-30T05:30:19;23.59;26.42
71514;DHT22;59335;46.652;21.272;2024-01-30T05:33:22;23.54;26.38
71514;DHT22;59335;46.652;21.272;2024-01-30T05:36:25;23.57;26.39
71514;DHT22;59335;46.652;21.272;2024-01-30T05:39:28;23.56;26.44
71514;DHT22;59335;46.652;21.272;2024-01-30T05:42:30;23.51;26.51
71514;DHT22;59335;46.652;21.272;2024-01-30T05:45:34;23.54;26.59
71514;DHT22;59335;46.652;21.272;2024-01-30T05:48:40;23.53;26.47
71514;DHT22;59335;46.652;21.272;2024-01-30T05:51:44;23.57;26.48
71514;DHT22;59335;46.652;21.272;2024-01-30T05:54:47;23.54;26.53
71514;DHT22;59335;46.652;21.272;2024-01-30T05:57:50;23.57;26.67
71514;DHT22;59335;46.652;21.272;2024-01-30T06:00:55;23.57;26.65
71514;DHT22;59335;46.652;21.272;2024-01-30T06:03:57;23.56;26.97
71514;DHT22;59335;46.652;21.272;2024-01-30T06:07:01;23.59;26.96
71514;DHT22;59335;46.652;21.272;2024-01-30T06:10:05;23.61;26.91
71514;DHT22;59335;46.652;21.272;2024-01-30T06:13:09;23.63;26.95
71514;DHT22;59335;46.652;21.272;2024-01-30T06:16:12;23.57;26.99
71514;DHT22;59335;46.652;21.272;2024-01-30T06:19:15;23.64;27.13
71514;DHT22;59335;46.652;21.272;2024-01-30T06:22:18;23.64;27.07
71514;DHT22;59335;46.652;21.272;2024-01-30T06:25:21;23.69;27.14
71514;DHT22;59335;46.652;21.272;2024-01-30T06:28:24;23.67;27.33
71514;DHT22;59335;46.652;21.272;2024-01-30T06:31:39;23.70;27.09
71514;DHT22;59335;46.652;21.272;2024-01-30T06:34:42;23.67;27.54
71514;DHT22;59335;46.652;21.272;2024-01-30T06:37:46;23.67;27.86
71514;DHT22;59335;46.652;21.272;2024-01-30T06:40:49;23.71;27.85
71514;DHT22;59335;46.652;21.272;2024-01-30T06:43:52;23.78;27.78
71514;DHT22;59335;46.652;21.272;2024-01-30T06:46:55;23.84;28.02
71514;DHT22;59335;46.652;21.272;2024-01-30T06:49:58;23.90;28.14
71514;DHT22;59335;46.652;21.272;2024-01-30T06:53:09;23.91;28.72
71514;DHT22;59335;46.652;21.272;2024-01-30T06:56:13;23.96;28.78
71514;DHT22;59335;46.652;21.272;2024-01-30T06:59:17;23.94;28.88
71514;DHT22;59335;46.652;21.272;2024-01-30T07:02:25;23.98;29.24
71514;DHT22;59335;46.652;21.272;2024-01-30T07:05:35;24.02;29.03
71514;DHT22;59335;46.652;21.272;2024-01-30T07:08:39;24.07;28.92
71514;DHT22;59335;46.652;21.272;2024-01-30T07:12:05;24.09;28.94
71514;DHT22;59335;46.652;21.272;2024-01-30T07:15:09;24.14;28.91
71514;DHT22;59335;46.652;21.272;2024-01-30T07:18:12;24.12;28.99
71514;DHT22;59335;46.652;21.272;2024-01-30T07:21:21;24.15;28.96
71514;DHT22;59335;46.652;21.272;2024-01-30T07:24:45;24.19;29.00
71514;DHT22;59335;46.652;21.272;2024-01-30T07:27:50;24.26;29.01
71514;DHT22;59335;46.652;21.272;2024-01-30T07:31:03;24.32;29.02
71514;DHT22;59335;46.652;21.272;2024-01-30T07:34:09;24.33;29.07
71514;DHT22;59335;46.652;21.272;2024-01-30T07:37:13;24.35;29.01
71514;DHT22;59335;46.652;21.272;2024-01-30T07:40:23;24.30;29.05
71514;DHT22;59335;46.652;21.272;2024-01-30T07:43:30;24.29;29.29
71514;DHT22;59335;46.652;21.272;2024-01-30T07:46:33;24.32;29.05
71514;DHT22;59335;46.652;21.272;2024-01-30T07:49:36;24.32;29.31
71514;DHT22;59335;46.652;21.272;2024-01-30T07:52:40;24.30;29.46
71514;DHT22;59335;46.652;21.272;2024-01-30T07:55:44;24.36;29.55
71514;DHT22;59335;46.652;21.272;2024-01-30T07:58:49;24.43;30.17
71514;DHT22;59335;46.652;21.272;2024-01-30T08:01:52;24.51;31.37
71514;DHT22;59335;46.652;21.272;2024-01-30T08:04:55;24.51;30.40
71514;DHT22;59335;46.652;21.272;2024-01-30T08:07:58;24.51;30.34
71514;DHT22;59335;46.652;21.272;2024-01-30T08:11:01;24.51;30.25
71514;DHT22;59335;46.652;21.272;2024-01-30T08:14:04;24.51;30.19
71514;DHT22;59335;46.652;21.272;2024-01-30T08:17:07;24.57;30.05
71514;DHT22;59335;46.652;21.272;2024-01-30T08:20:10;24.62;29.97
71514;DHT22;59335;46.652;21.272;2024-01-30T08:23:15;24.69;29.80
71514;DHT22;59335;46.652;21.272;2024-01-30T08:26:18;24.72;29.78
71514;DHT22;59335;46.652;21.272;2024-01-30T08:29:21;24.76;29.68
71514;DHT22;59335;46.652;21.272;2024-01-30T08:32:23;24.77;29.74
71514;DHT22;59335;46.652;21.272;2024-01-30T08:35:26;24.79;29.73
71514;DHT22;59335;46.652;21.272;2024-01-30T08:38:31;24.79;29.62
71514;DHT22;59335;46.652;21.272;2024-01-30T08:41:35;24.82;29.73
71514;DHT22;59335;46.652;21.272;2024-01-30T08:44:38;24.84;29.76
71514;DHT22;59335;46.652;21.272;2024-01-30T08:47:41;24.87;29.87
71514;DHT22;59335;46.652;21.272;2024-01-30T08:50:45;24.87;30.01
71514;DHT22;59335;46.652;21.272;2024-01-30T08:53:48;24.91;30.25
71514;DHT22;59335;46.652;21.272;2024-01-30T08:56:54;24.91;30.31
71514;DHT22;59335;46.652;21.272;2024-01-30T08:59:59;24.93;30.53
71514;DHT22;59335;46.652;21.272;2024-01-30T09:03:03;24.98;31.42
71514;DHT22;59335;46.652;21.272;2024-01-30T09:06:11;25.01;31.82
71514;DHT22;59335;46.652;21.272;2024-01-30T09:09:14;25.03;31.11
71514;DHT22;59335;46.652;21.272;2024-01-30T09:12:17;25.06;31.11
71514;DHT22;59335;46.652;21.272;2024-01-30T09:15:20;25.04;31.17
71514;DHT22;59335;46.652;21.272;2024-01-30T09:18:26;25.07;31.61
71514;DHT22;59335;46.652;21.272;2024-01-30T09:21:32;25.13;31.34
71514;DHT22;59335;46.652;21.272;2024-01-30T09:24:40;25.10;31.33
71514;DHT22;59335;46.652;21.272;2024-01-30T09:27:43;25.11;31.28
71514;DHT22;59335;46.652;21.272;2024-01-30T09:30:47;25.11;31.26
71514;DHT22;59335;46.652;21.272;2024-01-30T09:33:50;25.17;31.27
71514;DHT22;59335;46.652;21.272;2024-01-30T09:36:56;25.11;31.34
71514;DHT22;59335;46.652;21.272;2024-01-30T09:39:59;25.14;31.31
71514;DHT22;59335;46.652;21.272;2024-01-30T09:43:03;25.15;31.39
71514;DHT22;59335;46.652;21.272;2024-01-30T09:46:10;25.17;32.32
71514;DHT22;59335;46.652;21.272;2024-01-30T09:49:15;25.07;32.18
71514;DHT22;59335;46.652;21.272;2024-01-30T09:52:23;25.08;32.25
71514;DHT22;59335;46.652;21.272;2024-01-30T09:55:26;25.10;32.36
71514;DHT22;59335;46.652;21.272;2024-01-30T09:58:30;25.17;32.44
71514;DHT22;59335;46.652;21.272;2024-01-30T10:01:37;25.21;32.60
71514;DHT22;59335;46.652;21.272;2024-01-30T10:04:44;25.27;33.20
71514;DHT22;59335;46.652;21.272;2024-01-30T10:07:54;25.31;33.23
71514;DHT22;59335;46.652;21.272;2024-01-30T10:10:58;25.35;33.33
71514;DHT22;59335;46.652;21.272;2024-01-30T10:14:01;25.41;33.94
71514;DHT22;59335;46.652;21.272;2024-01-30T10:17:06;25.39;33.80
71514;DHT22;59335;46.652;21.272;2024-01-30T10:20:24;25.32;33.79
71514;DHT22;59335;46.652;21.272;2024-01-30T10:23:28;25.15;33.89
71514;DHT22;59335;46.652;21.272;2024-01-30T10:26:38;25.14;33.82
71514;DHT22;59335;46.652;21.272;2024-01-30T10:29:43;25.10;33.73
71514;DHT22;59335;46.652;21.272;2024-01-30T10:32:46;25.06;33.64
71514;DHT22;59335;46.652;21.272;2024-01-30T10:35:51;25.04;33.51
71514;DHT22;59335;46.652;21.272;2024-01-30T10:38:59;25.01;33.50
71514;DHT22;59335;46.652;21.272;2024-01-30T10:42:04;24.98;33.43
71514;DHT22;59335;46.652;21.272;2024-01-30T10:45:12;24.95;33.57
71514;DHT22;59335;46.652;21.272;2024-01-30T10:48:26;24.94;33.74
71514;DHT22;59335;46.652;21.272;2024-01-30T10:51:32;24.94;33.69
71514;DHT22;59335;46.652;21.272;2024-01-30T10:54:40;24.88;33.84
71514;DHT22;59335;46.652;21.272;2024-01-30T10:57:45;24.91;34.15
71514;DHT22;59335;46.652;21.272;2024-01-30T11:00:49;24.93;33.90
71514;DHT22;59335;46.652;21.272;2024-01-30T11:03:55;24.90;33.98
71514;DHT22;59335;46.652;21.272;2024-01-30T11:07:00;24.90;33.80
71514;DHT22;59335;46.652;21.272;2024-01-30T11:10:06;24.90;33.86
71514;DHT22;59335;46.652;21.272;2024-01-30T11:13:13;24.90;33.79
71514;DHT22;59335;46.652;21.272;2024-01-30T11:16:16;24.87;33.72
71514;DHT22;59335;46.652;21.272;2024-01-30T11:19:23;24.86;33.71
71514;DHT22;59335;46.652;21.272;2024-01-30T11:22:30;24.83;33.75
71514;DHT22;59335;46.652;21.272;2024-01-30T11:25:34;24.87;33.77
71514;DHT22;59335;46.652;21.272;2024-01-30T11:28:37;24.83;33.79
71514;DHT22;59335;46.652;21.272;2024-01-30T11:31:51;24.86;33.72
71514;DHT22;59335;46.652;21.272;2024-01-30T11:34:56;24.83;33.77
71514;DHT22;59335;46.652;21.272;2024-01-30T11:38:00;24.80;33.67
71514;DHT22;59335;46.652;21.272;2024-01-30T11:41:04;24.82;33.89
71514;DHT22;59335;46.652;21.272;2024-01-30T11:44:08;24.82;33.82
71514;DHT22;59335;46.652;21.272;2024-01-30T11:47:11;24.79;33.85
71514;DHT22;59335;46.652;21.272;2024-01-30T11:50:15;24.82;33.87
71514;DHT22;59335;46.652;21.272;2024-01-30T11:53:18;24.79;33.83
71514;DHT22;59335;46.652;21.272;2024-01-30T11:56:23;24.80;34.22
71514;DHT22;59335;46.652;21.272;2024-01-30T11:59:28;24.80;34.14
71514;DHT22;59335;46.652;21.272;2024-01-30T12:02:38;24.79;34.10
71514;DHT22;59335;46.652;21.272;2024-01-30T12:05:42;24.80;34.00
71514;DHT22;59335;46.652;21.272;2024-01-30T12:08:58;24.82;33.90
71514;DHT22;59335;46.652;21.272;2024-01-30T12:12:01;24.79;33.88
71514;DHT22;59335;46.652;21.272;2024-01-30T12:15:05;24.74;34.51
71514;DHT22;59335;46.652;21.272;2024-01-30T12:18:09;24.77;34.28
71514;DHT22;59335;46.652;21.272;2024-01-30T12:21:12;24.79;34.01
71514;DHT22;59335;46.652;21.272;2024-01-30T12:24:15;24.76;34.25
71514;DHT22;59335;46.652;21.272;2024-01-30T12:27:18;24.80;34.22
71514;DHT22;59335;46.652;21.272;2024-01-30T12:30:20;24.80;34.31
71514;DHT22;59335;46.652;21.272;2024-01-30T12:33:26;24.82;34.34
71514;DHT22;59335;46.652;21.272;2024-01-30T12:36:31;24.80;34.41
71514;DHT22;59335;46.652;21.272;2024-01-30T12:39:35;24.79;34.54
71514;DHT22;59335;46.652;21.272;2024-01-30T12:42:38;24.79;34.51
71514;DHT22;59335;46.652;21.272;2024-01-30T12:45:41;24.80;34.39
71514;DHT22;59335;46.652;21.272;2024-01-30T12:48:45;24.83;34.42
71514;DHT22;59335;46.652;21.272;2024-01-30T12:51:48;24.83;34.62
71514;DHT22;59335;46.652;21.272;2024-01-30T12:54:52;24.80;34.97
71514;DHT22;59335;46.652;21.272;2024-01-30T12:57:54;24.79;34.80
71514;DHT22;59335;46.652;21.272;2024-01-30T13:00:58;24.80;34.95
71514;DHT22;59335;46.652;21.272;2024-01-30T13:04:01;24.82;35.05
71514;DHT22;59335;46.652;21.272;2024-01-30T13:07:04;24.79;35.49
71514;DHT22;59335;46.652;21.272;2024-01-30T13:10:07;24.82;35.16
71514;DHT22;59335;46.652;21.272;2024-01-30T13:13:10;24.82;35.04
71514;DHT22;59335;46.652;21.272;2024-01-30T13:16:24;24.82;35.46
71514;DHT22;59335;46.652;21.272;2024-01-30T13:19:27;24.76;35.38
71514;DHT22;59335;46.652;21.272;2024-01-30T13:22:32;24.79;35.22
71514;DHT22;59335;46.652;21.272;2024-01-30T13:25:35;24.77;35.01
71514;DHT22;59335;46.652;21.272;2024-01-30T13:28:38;24.79;34.88
71514;DHT22;59335;46.652;21.272;2024-01-30T13:31:41;24.74;34.78
71514;DHT22;59335;46.652;21.272;2024-01-30T13:34:46;24.74;34.66
71514;DHT22;59335;46.652;21.272;2024-01-30T13:37:52;24.72;34.70
71514;DHT22;59335;46.652;21.272;2024-01-30T13:41:03;24.69;34.55
71514;DHT22;59335;46.652;21.272;2024-01-30T13:44:06;24.66;34.65
71514;DHT22;59335;46.652;21.272;2024-01-30T13:47:10;24.66;34.59
71514;DHT22;59335;46.652;21.272;2024-01-30T13:50:14;24.67;34.49
71514;DHT22;59335;46.652;21.272;2024-01-30T13:53:19;24.65;34.38
71514;DHT22;59335;46.652;21.272;2024-01-30T13:56:22;24.66;34.28
71514;DHT22;59335;46.652;21.272;2024-01-30T13:59:28;24.66;34.20
71514;DHT22;59335;46.652;21.272;2024-01-30T14:02:32;24.65;34.10
71514;DHT22;59335;46.652;21.272;2024-01-30T14:05:35;24.65;34.19
71514;DHT22;59335;46.652;21.272;2024-01-30T14:08:42;24.60;34.12
71514;DHT22;59335;46.652;21.272;2024-01-30T14:11:55;24.62;34.12
71514;DHT22;59335;46.652;21.272;2024-01-30T14:14:57;24.59;34.09
71514;DHT22;59335;46.652;21.272;2024-01-30T14:18:00;24.57;34.22
71514;DHT22;59335;46.652;21.272;2024-01-30T14:21:03;24.56;34.23
71514;DHT22;59335;46.652;21.272;2024-01-30T14:24:06;24.53;33.93
71514;DHT22;59335;46.652;21.272;2024-01-30T14:27:10;24.52;33.88
71514;DHT22;59335;46.652;21.272;2024-01-30T14:30:13;24.52;33.82
71514;DHT22;59335;46.652;21.272;2024-01-30T14:33:16;24.49;33.93
71514;DHT22;59335;46.652;21.272;2024-01-30T14:36:19;24.49;34.24
71514;DHT22;59335;46.652;21.272;2024-01-30T14:39:23;24.48;34.46
71514;DHT22;59335;46.652;21.272;2024-01-30T14:42:26;24.49;34.11
71514;DHT22;59335;46.652;21.272;2024-01-30T14:45:34;24.48;33.93
71514;DHT22;59335;46.652;21.272;2024-01-30T14:48:36;24.48;33.93
71514;DHT22;59335;46.652;21.272;2024-01-30T14:51:42;24.49;33.87
71514;DHT22;59335;46.652;21.272;2024-01-30T14:54:45;24.45;34.56
71514;DHT22;59335;46.652;21.272;2024-01-30T14:57:48;24.46;34.22
71514;DHT22;59335;46.652;21.272;2024-01-30T15:00:51;24.46;34.49
71514;DHT22;59335;46.652;21.272;2024-01-30T15:03:54;24.45;34.40
71514;DHT22;59335;46.652;21.272;2024-01-30T15:06:59;24.46;34.99
71514;DHT22;59335;46.652;21.272;2024-01-30T15:10:06;24.48;34.64
71514;DHT22;59335;46.652;21.272;2024-01-30T15:13:10;24.49;34.43
71514;DHT22;59335;46.652;21.272;2024-01-30T15:16:14;24.48;34.51
71514;DHT22;59335;46.652;21.272;2024-01-30T15:19:19;24.46;34.66
71514;DHT22;59335;46.652;21.272;2024-01-30T15:22:22;24.51;34.35
71514;DHT22;59335;46.652;21.272;2024-01-30T15:25:27;24.51;34.31
71514;DHT22;59335;46.652;21.272;2024-01-30T15:28:36;24.49;34.41
71514;DHT22;59335;46.652;21.272;2024-01-30T15:31:40;24.46;34.53
71514;DHT22;59335;46.652;21.272;2024-01-30T15:34:43;24.43;34.56
71514;DHT22;59335;46.652;21.272;2024-01-30T15:37:46;24.40;34.60
71514;DHT22;59335;46.652;21.272;2024-01-30T15:40:49;24.36;34.93
71514;DHT22;59335;46.652;21.272;2024-01-30T15:43:52;24.28;34.67
71514;DHT22;59335;46.652;21.272;2024-01-30T15:46:54;24.25;34.62
71514;DHT22;59335;46.652;21.272;2024-01-30T15:49:58;24.28;34.47
71514;DHT22;59335;46.652;21.272;2024-01-30T15:53:01;24.26;34.67
71514;DHT22;59335;46.652;21.272;2024-01-30T15:56:04;24.28;34.61
71514;DHT22;59335;46.652;21.272;2024-01-30T15:59:07;24.28;34.41
71514;DHT22;59335;46.652;21.272;2024-01-30T16:02:10;24.29;33.94
71514;DHT22;59335;46.652;21.272;2024-01-30T16:05:14;24.26;34.06
71514;DHT22;59335;46.652;21.272;2024-01-30T16:08:19;24.25;34.01
71514;DHT22;59335;46.652;21.272;2024-01-30T16:11:21;24.22;33.85
71514;DHT22;59335;46.652;21.272;2024-01-30T16:14:24;24.21;33.85
71514;DHT22;59335;46.652;21.272;2024-01-30T16:17:27;24.22;33.81
71514;DHT22;59335;46.652;21.272;2024-01-30T16:20:30;24.22;33.76
71514;DHT22;59335;46.652;21.272;2024-01-30T16:23:33;24.21;33.72
71514;DHT22;59335;46.652;21.272;2024-01-30T16:26:35;24.19;33.66
71514;DHT22;59335;46.652;21.272;2024-01-30T16:29:39;24.19;33.56
71514;DHT22;59335;46.652;21.272;2024-01-30T16:32:42;24.19;33.45
71514;DHT22;59335;46.652;21.272;2024-01-30T16:35:45;24.17;33.38
71514;DHT22;59335;46.652;21.272;2024-01-30T16:38:49;24.18;33.20
71514;DHT22;59335;46.652;21.272;2024-01-30T16:41:52;24.17;33.14
71514;DHT22;59335;46.652;21.272;2024-01-30T16:44:55;24.14;33.09
71514;DHT22;59335;46.652;21.272;2024-01-30T16:47:57;24.11;32.90
71514;DHT22;59335;46.652;21.272;2024-01-30T16:51:01;24.11;32.86
71514;DHT22;59335;46.652;21.272;2024-01-30T16:54:04;24.11;32.95
71514;DHT22;59335;46.652;21.272;2024-01-30T16:57:07;24.11;32.80
71514;DHT22;59335;46.652;21.272;2024-01-30T17:00:18;24.08;32.70
71514;DHT22;59335;46.652;21.272;2024-01-30T17:03:20;24.12;32.67
71514;DHT22;59335;46.652;21.272;2024-01-30T17:06:23;24.14;32.64
71514;DHT22;59335;46.652;21.272;2024-01-30T17:09:26;24.11;32.80
71514;DHT22;59335;46.652;21.272;2024-01-30T17:12:29;24.14;32.64
71514;DHT22;59335;46.652;21.272;2024-01-30T17:15:34;24.11;32.72
71514;DHT22;59335;46.652;21.272;2024-01-30T17:18:37;24.12;32.78
71514;DHT22;59335;46.652;21.272;2024-01-30T17:21:40;24.01;32.88
71514;DHT22;59335;46.652;21.272;2024-01-30T17:24:43;24.07;32.76
71514;DHT22;59335;46.652;21.272;2024-01-30T17:27:53;24.08;32.70
71514;DHT22;59335;46.652;21.272;2024-01-30T17:30:56;24.08;32.72
71514;DHT22;59335;46.652;21.272;2024-01-30T17:33:59;24.08;32.67
71514;DHT22;59335;46.652;21.272;2024-01-30T17:37:01;24.08;32.53
71514;DHT22;59335;46.652;21.272;2024-01-30T17:40:05;24.08;32.73
71514;DHT22;59335;46.652;21.272;2024-01-30T17:43:09;24.11;32.81
71514;DHT22;59335;46.652;21.272;2024-01-30T17:46:12;24.08;32.75
71514;DHT22;59335;46.652;21.272;2024-01-30T17:49:16;24.07;32.59
71514;DHT22;59335;46.652;21.272;2024-01-30T17:52:19;24.08;32.49
71514;DHT22;59335;46.652;21.272;2024-01-30T17:55:22;24.08;32.41
71514;DHT22;59335;46.652;21.272;2024-01-30T17:58:24;24.08;32.27
71514;DHT22;59335;46.652;21.272;2024-01-30T18:01:28;24.04;32.23
71514;DHT22;59335;46.652;21.272;2024-01-30T18:04:31;24.05;32.23
71514;DHT22;59335;46.652;21.272;2024-01-30T18:07:35;24.02;32.09
71514;DHT22;59335;46.652;21.272;2024-01-30T18:10:42;24.02;32.02
71514;DHT22;59335;46.652;21.272;2024-01-30T18:13:49;24.02;32.03
71514;DHT22;59335;46.652;21.272;2024-01-30T18:16:54;24.01;32.03
71514;DHT22;59335;46.652;21.272;2024-01-30T18:19:57;24.00;31.86
71514;DHT22;59335;46.652;21.272;2024-01-30T18:23:00;24.00;31.84
71514;DHT22;59335;46.652;21.272;2024-01-30T18:26:02;24.01;31.77
71514;DHT22;59335;46.652;21.272;2024-01-30T18:29:06;24.02;31.72
71514;DHT22;59335;46.652;21.272;2024-01-30T18:32:08;24.00;31.67
71514;DHT22;59335;46.652;21.272;2024-01-30T18:35:11;24.00;31.63
71514;DHT22;59335;46.652;21.272;2024-01-30T18:38:14;24.00;31.55
71514;DHT22;59335;46.652;21.272;2024-01-30T18:41:18;23.98;31.44
71514;DHT22;59335;46.652;21.272;2024-01-30T18:44:22;23.97;31.37
71514;DHT22;59335;46.652;21.272;2024-01-30T18:47:25;23.97;31.32
71514;DHT22;59335;46.652;21.272;2024-01-30T18:50:29;23.97;31.29
71514;DHT22;59335;46.652;21.272;2024-01-30T18:53:33;23.98;31.31
71514;DHT22;59335;46.652;21.272;2024-01-30T18:56:36;23.97;31.20
71514;DHT22;59335;46.652;21.272;2024-01-30T18:59:40;23.96;31.18
71514;DHT22;59335;46.652;21.272;2024-01-30T19:02:45;23.96;31.08